Time;durP1;ratioP1;P1;durP2;ratioP2;P2;SDS_P1;SDS_P2;PMS_P1;PMS_P2;Temp;Humidity;BMP_temperature;BMP_pressure;BME280_temperature;BME280_humidity;BME280_pressure;Samples;Min_cycle;Max_cycle;Signal;HPM_P1;HPM_P2
2022/01/20 00:01:13;;;;;;;26.15;10.75;;;;;;;4.39;82.77;100397.03;5025549;28;20041;-74
2022/01/20 00:03:41;;;;;;;34.17;9.07;;;;;;;4.35;83.41;100397.94;5025593;28;20095;-74
2022/01/20 00:28:02;;;;;;;24.00;9.60;;;;;;;4.05;84.43;100407.03;5031753;28;20400;-74
2022/01/20 00:33:14;;;;;;;27.83;9.70;;;;;;;3.94;84.60;100415.03;5040401;28;20059;-74
2022/01/20 00:38:22;;;;;;;30.20;10.32;;;;;;;3.90;84.52;100407.25;5052004;28;20464;-73
2022/01/20 00:40:48;;;;;;;23.45;7.28;;;;;;;3.88;84.76;100405.50;5050526;28;20037;-73
2022/01/20 00:43:14;;;;;;;25.42;8.68;;;;;;;3.87;84.69;100411.59;5051013;28;20033;-73
2022/01/20 00:45:39;;;;;;;38.70;8.68;;;;;;;3.86;85.08;100412.50;5051427;28;20490;-73
2022/01/20 00:48:05;;;;;;;22.83;8.13;;;;;;;3.86;85.03;100420.31;5051952;28;20037;-73
2022/01/20 00:50:30;;;;;;;30.05;7.88;;;;;;;3.85;84.97;100415.13;5051322;28;20037;-73
2022/01/20 00:52:56;;;;;;;30.90;9.15;;;;;;;3.84;85.21;100426.44;5051136;28;20068;-73
2022/01/20 00:55:21;;;;;;;42.17;10.02;;;;;;;3.81;85.19;100419.50;5051591;28;20033;-73
2022/01/20 00:57:47;;;;;;;25.50;7.43;;;;;;;3.80;84.95;100432.56;5051336;28;20063;-73
2022/01/20 01:00:14;;;;;;;25.75;8.45;;;;;;;3.78;85.12;100431.72;5051426;28;20037;-73
2022/01/20 01:02:39;;;;;;;28.00;9.50;;;;;;;3.78;85.41;100426.50;5046295;28;20099;-74
2022/01/20 01:05:06;;;;;;;26.17;8.40;;;;;;;3.77;85.39;100436.06;5030952;28;20687;-74
2022/01/20 01:07:47;;;;;;;32.22;7.63;;;;;;;3.78;85.03;100434.31;5031008;28;20069;-73
2022/01/20 01:10:21;;;;;;;32.03;10.07;;;;;;;3.76;85.18;100436.94;5031131;28;20044;-73
2022/01/20 01:12:57;;;;;;;19.20;7.50;;;;;;;3.73;85.24;100442.19;5030615;28;20042;-73
2022/01/20 01:15:28;;;;;;;21.63;8.60;;;;;;;3.70;85.16;100438.75;5030201;28;20038;-73
2022/01/20 01:21:10;;;;;;;26.80;8.35;;;;;;;3.59;85.39;100444.97;5030635;28;20036;-73
2022/01/20 01:23:31;;;;;;;27.25;8.93;;;;;;;3.55;85.40;100447.59;5030208;28;20033;-73
2022/01/20 01:25:56;;;;;;;23.27;8.32;;;;;;;3.51;85.50;100440.69;5029190;28;20524;-73
2022/01/20 01:28:25;;;;;;;32.40;9.85;;;;;;;3.48;85.80;100438.97;5030592;28;20041;-71
2022/01/20 01:33:22;;;;;;;28.38;8.30;;;;;;;3.46;85.89;100437.25;5029629;28;20100;-73
2022/01/20 01:35:55;;;;;;;36.28;9.50;;;;;;;3.43;85.56;100439.00;5030126;28;20041;-73
2022/01/20 01:38:36;;;;;;;25.75;8.65;;;;;;;3.41;85.98;100448.59;5050055;28;20039;-72
2022/01/20 01:41:15;;;;;;;31.15;8.80;;;;;;;3.41;85.69;100460.75;5048904;28;20376;-73
2022/01/20 01:43:44;;;;;;;29.02;8.75;;;;;;;3.36;85.80;100457.34;5052326;28;20040;-73
2022/01/20 01:46:12;;;;;;;29.50;9.40;;;;;;;3.37;86.13;100462.53;5049986;28;20076;-72
2022/01/20 01:48:38;;;;;;;32.08;8.30;;;;;;;3.35;86.24;100456.47;5049824;28;20065;-73
2022/01/20 01:51:03;;;;;;;24.27;7.78;;;;;;;3.37;86.00;100462.53;5049167;28;20456;-72
2022/01/20 01:53:28;;;;;;;35.70;9.32;;;;;;;3.37;85.79;100446.91;5049599;28;20037;-73
2022/01/20 01:55:55;;;;;;;21.27;7.35;;;;;;;3.38;85.78;100447.75;5049772;28;20032;-73
2022/01/20 01:58:20;;;;;;;26.83;7.15;;;;;;;3.40;86.27;100435.59;5050118;28;20029;-73
2022/01/20 02:00:45;;;;;;;33.95;7.93;;;;;;;3.41;85.52;100447.72;5025250;28;20083;-73
2022/01/20 02:03:13;;;;;;;31.42;8.07;;;;;;;3.40;85.87;100452.09;5041516;28;20055;-73
2022/01/20 02:05:52;;;;;;;41.22;8.63;;;;;;;3.40;85.67;100456.44;5049297;28;20044;-73
2022/01/20 02:19:12;;;;;;;22.33;7.32;;;;;;;3.31;85.36;100446.94;5049093;28;20044;-73
2022/01/20 02:21:49;;;;;;;24.45;6.88;;;;;;;3.32;85.61;100437.38;5048670;28;20515;-73
2022/01/20 02:24:15;;;;;;;31.13;7.80;;;;;;;3.31;85.27;100441.72;5048977;28;20052;-72
2022/01/20 02:26:40;;;;;;;33.08;7.25;;;;;;;3.31;85.48;100449.56;5048533;28;20036;-72
2022/01/20 02:29:05;;;;;;;31.83;6.82;;;;;;;3.29;85.28;100443.47;5062672;28;20434;-72
2022/01/20 02:31:31;;;;;;;36.60;8.65;;;;;;;3.29;85.25;100455.66;5068644;28;20547;-73
2022/01/20 02:33:58;;;;;;;35.42;10.65;;;;;;;3.27;85.23;100463.47;5068736;28;20093;-73
2022/01/20 02:36:23;;;;;;;32.40;7.22;;;;;;;3.27;85.19;100462.63;5068920;28;20036;-73
2022/01/20 02:38:57;;;;;;;27.40;7.55;;;;;;;3.29;85.12;100455.66;5068703;28;20050;-73
2022/01/20 02:46:51;;;;;;;29.35;7.57;;;;;;;3.42;85.21;100439.03;5067905;28;20051;-73
2022/01/20 02:49:17;;;;;;;20.10;6.40;;;;;;;3.41;85.02;100445.13;5068763;28;20028;-73
2022/01/20 02:51:48;;;;;;;30.52;6.03;;;;;;;3.44;85.29;100451.16;5069074;28;20056;-73
2022/01/20 02:54:13;;;;;;;29.45;7.40;;;;;;;3.51;85.30;100462.41;5070048;28;20041;-72
2022/01/20 02:56:38;;;;;;;22.58;8.15;;;;;;;3.55;85.07;100463.25;5068966;28;20090;-72
2022/01/20 02:59:04;;;;;;;27.20;7.15;;;;;;;3.59;84.80;100464.94;5069335;28;20093;-73
2022/01/20 03:01:29;;;;;;;26.77;7.55;;;;;;;3.61;84.98;100460.56;5067628;28;20058;-73
2022/01/20 03:03:55;;;;;;;33.83;8.95;;;;;;;3.65;84.62;100457.91;5067932;28;20068;-73
2022/01/20 03:06:21;;;;;;;22.95;6.13;;;;;;;3.62;84.83;100449.28;5068035;28;20037;-74
2022/01/20 03:08:46;;;;;;;32.20;8.50;;;;;;;3.63;84.60;100451.00;5068484;28;20537;-73
2022/01/20 03:11:11;;;;;;;29.17;6.65;;;;;;;3.62;84.46;100454.50;5067344;28;20046;-74
2022/01/20 03:13:37;;;;;;;34.25;6.88;;;;;;;3.61;84.04;100456.22;5053871;28;20755;-74
2022/01/20 03:16:02;;;;;;;13.75;6.00;;;;;;;3.59;84.15;100450.19;5048346;28;20117;-74
2022/01/20 03:18:27;;;;;;;20.15;5.85;;;;;;;3.58;84.03;100445.81;5048213;28;20373;-74
2022/01/20 03:20:53;;;;;;;26.83;6.55;;;;;;;3.57;84.60;100441.50;5047498;28;20033;-72
2022/01/20 03:23:18;;;;;;;23.80;5.43;;;;;;;3.57;83.79;100440.59;5048092;28;20036;-74
2022/01/20 03:25:44;;;;;;;32.60;7.90;;;;;;;3.53;84.59;100444.16;5049281;28;20036;-74
2022/01/20 03:28:09;;;;;;;28.95;6.03;;;;;;;3.54;84.03;100443.25;5049676;28;20037;-75
2022/01/20 03:30:35;;;;;;;22.48;6.10;;;;;;;3.52;83.75;100438.06;5049321;28;20481;-74
2022/01/20 03:33:00;;;;;;;20.80;7.30;;;;;;;3.49;83.84;100445.91;5048060;28;20067;-74
2022/01/20 03:35:26;;;;;;;19.55;4.82;;;;;;;3.46;83.51;100453.75;5048589;28;20040;-74
2022/01/20 03:37:51;;;;;;;21.38;7.28;;;;;;;3.42;83.60;100452.03;5048438;28;20037;-74
2022/01/20 03:40:17;;;;;;;24.08;5.80;;;;;;;3.36;83.51;100446.91;5054566;28;20035;-74
2022/01/20 03:42:43;;;;;;;14.57;4.55;;;;;;;3.34;83.62;100446.06;5079441;28;20380;-74
2022/01/20 03:45:09;;;;;;;22.38;4.45;;;;;;;3.33;83.54;100444.34;5088981;28;20044;-74
2022/01/20 03:47:34;;;;;;;18.38;4.60;;;;;;;3.28;83.61;100452.19;5088172;28;20028;-74
2022/01/20 03:52:26;;;;;;;15.68;5.40;;;;;;;3.25;83.79;100436.59;5067933;28;20497;-74
2022/01/20 03:54:51;;;;;;;14.70;3.88;;;;;;;3.25;84.06;100439.19;5066105;28;20471;-74
2022/01/20 03:57:18;;;;;;;24.27;5.32;;;;;;;3.23;83.71;100447.00;5067970;28;20056;-73
2022/01/20 03:59:44;;;;;;;18.20;5.57;;;;;;;3.22;83.86;100431.38;5068069;28;20029;-74
2022/01/20 04:02:10;;;;;;;20.02;4.47;;;;;;;3.21;83.84;100422.72;5067577;28;20049;-74
2022/01/20 04:04:36;;;;;;;15.82;4.57;;;;;;;3.22;83.86;100424.47;5068081;28;20033;-74
2022/01/20 04:07:02;;;;;;;10.60;5.90;;;;;;;3.25;83.89;100423.56;5067722;28;20090;-72
2022/01/20 04:09:27;;;;;;;15.77;5.05;;;;;;;3.30;84.08;100423.50;5067754;28;20035;-72
2022/01/20 04:11:53;;;;;;;19.20;5.22;;;;;;;3.32;83.98;100421.75;5066637;28;20048;-73
2022/01/20 04:14:20;;;;;;;19.55;7.18;;;;;;;3.33;84.22;100424.34;5067031;28;20063;-73
2022/01/20 04:17:02;;;;;;;19.52;6.15;;;;;;;3.35;84.51;100425.19;5066989;28;20046;-73
2022/01/20 04:19:30;;;;;;;21.10;6.50;;;;;;;3.38;84.22;100417.34;5067253;28;20522;-73
2022/01/20 04:21:56;;;;;;;21.90;7.00;;;;;;;3.43;84.59;100419.91;5066773;28;20439;-73
2022/01/20 04:24:22;;;;;;;12.15;5.57;;;;;;;3.46;84.56;100422.47;5066047;28;20093;-73
2022/01/20 04:26:47;;;;;;;21.13;6.82;;;;;;;3.49;84.64;100435.47;5049442;28;20504;-73
2022/01/20 04:29:13;;;;;;;25.15;7.30;;;;;;;3.52;84.34;100437.19;5067004;28;20041;-73
2022/01/20 04:31:41;;;;;;;19.73;7.07;;;;;;;3.55;84.57;100427.63;5066541;28;20489;-73
2022/01/20 04:34:07;;;;;;;17.98;6.55;;;;;;;3.56;84.70;100436.28;5065959;28;20094;-73
2022/01/20 04:36:37;;;;;;;26.13;8.52;;;;;;;3.55;84.42;100430.22;5067397;28;20488;-74
2022/01/20 04:39:05;;;;;;;26.38;7.57;;;;;;;3.55;84.35;100435.44;5067250;28;20043;-73
2022/01/20 04:41:30;;;;;;;26.75;8.45;;;;;;;3.54;84.50;100430.22;5066593;28;20141;-73
2022/01/20 04:44:00;;;;;;;24.67;9.98;;;;;;;3.51;84.58;100425.91;5067289;28;20060;-73
2022/01/20 04:59:32;;;;;;;15.07;8.20;;;;;;;3.36;84.67;100436.50;5066899;28;20029;-72
2022/01/20 05:01:57;;;;;;;27.95;9.05;;;;;;;3.32;84.76;100440.84;5066196;28;20040;-73
2022/01/20 05:04:24;;;;;;;20.75;7.28;;;;;;;3.32;84.96;100450.41;5066576;28;20040;-73
2022/01/20 05:06:52;;;;;;;27.92;7.72;;;;;;;3.32;84.59;100447.81;5063799;28;20507;-73
2022/01/20 05:09:20;;;;;;;16.50;5.65;;;;;;;3.30;84.86;100455.66;5047957;28;20071;-74
2022/01/20 05:12:25;;;;;;;24.10;6.97;;;;;;;3.27;84.33;100439.16;5049140;28;20033;-74
2022/01/20 05:14:38;;;;;;;15.18;6.10;;;;;;;3.26;84.38;100438.31;5049898;28;20401;-73
2022/01/20 05:17:03;;;;;;;17.70;7.28;;;;;;;3.24;84.56;100447.88;5050762;28;20033;-73
2022/01/20 05:19:31;;;;;;;18.17;4.68;;;;;;;3.22;84.14;100453.13;5049742;28;20025;-73
2022/01/20 05:21:57;;;;;;;26.63;5.57;;;;;;;3.22;84.05;100458.34;5049490;28;20044;-73
2022/01/20 05:24:22;;;;;;;18.88;4.78;;;;;;;3.23;84.23;100459.19;5048435;28;20048;-73
2022/01/20 05:26:50;;;;;;;19.85;5.38;;;;;;;3.27;84.29;100455.66;5049433;28;20143;-73
2022/01/20 05:29:19;;;;;;;17.25;4.53;;;;;;;3.30;83.89;100453.06;5049812;28;20037;-73
2022/01/20 05:31:45;;;;;;;14.88;4.22;;;;;;;3.34;83.44;100448.66;5049609;28;20033;-72
2022/01/20 05:34:10;;;;;;;15.88;4.68;;;;;;;3.32;83.33;100453.88;5050059;28;20048;-71
2022/01/20 05:36:36;;;;;;;14.07;5.00;;;;;;;3.29;83.27;100459.13;5049432;28;20459;-72
2022/01/20 05:39:02;;;;;;;17.40;3.42;;;;;;;3.28;83.24;100451.34;5051526;28;20055;-72
2022/01/20 05:41:28;;;;;;;16.67;4.28;;;;;;;3.29;83.27;100453.91;5049800;28;20051;-73
2022/01/20 05:43:53;;;;;;;16.70;4.22;;;;;;;3.30;83.48;100445.22;5050047;28;20440;-73
2022/01/20 05:46:23;;;;;;;17.25;4.90;;;;;;;3.28;83.39;100456.53;5049749;28;20080;-72
2022/01/20 05:48:49;;;;;;;22.33;4.70;;;;;;;3.26;83.30;100458.28;5049913;28;20029;-72
2022/01/20 05:51:14;;;;;;;18.25;3.80;;;;;;;3.26;83.70;100460.91;5049382;28;20037;-72
2022/01/20 05:53:40;;;;;;;18.33;4.38;;;;;;;3.27;83.71;100483.47;5049602;28;20378;-73
2022/01/20 05:56:06;;;;;;;27.10;5.80;;;;;;;3.32;83.64;100479.94;5050553;28;20037;-73
2022/01/20 05:58:36;;;;;;;18.23;5.18;;;;;;;3.37;83.44;100469.47;5052116;28;20033;-73
2022/01/20 06:01:05;;;;;;;14.35;5.55;;;;;;;3.32;83.38;100469.50;5048607;28;20033;-73
2022/01/20 06:03:37;;;;;;;19.25;4.43;;;;;;;3.36;83.42;100472.97;5049729;28;20041;-73
2022/01/20 06:06:08;;;;;;;16.08;5.13;;;;;;;3.38;83.39;100474.69;5049118;28;20033;-73
2022/01/20 06:08:35;;;;;;;13.10;4.35;;;;;;;3.38;83.45;100468.63;5049602;28;20049;-72
2022/01/20 06:11:00;;;;;;;22.10;5.30;;;;;;;3.39;83.47;100465.13;5047261;28;20036;-72
2022/01/20 06:13:27;;;;;;;12.95;4.10;;;;;;;3.42;83.31;100478.13;5048981;28;20043;-73
2022/01/20 06:15:53;;;;;;;20.60;7.68;;;;;;;3.45;83.35;100480.72;5050429;28;20060;-74
2022/01/20 06:18:19;;;;;;;21.35;4.95;;;;;;;3.48;83.41;100475.47;5049348;28;20063;-72
2022/01/20 06:20:45;;;;;;;9.95;3.70;;;;;;;3.52;83.19;100484.13;5048474;28;20511;-73
2022/01/20 06:23:11;;;;;;;6.05;3.30;;;;;;;3.56;82.94;100497.09;5049315;28;20037;-72
2022/01/20 06:25:37;;;;;;;10.77;3.95;;;;;;;3.57;82.93;100485.81;5049355;28;20033;-73
2022/01/20 06:28:03;;;;;;;8.60;3.53;;;;;;;3.57;82.92;100487.53;5048918;28;20112;-71
2022/01/20 06:30:30;;;;;;;9.48;3.50;;;;;;;3.58;82.96;100495.34;5050939;28;20029;-72
2022/01/20 06:32:56;;;;;;;15.38;4.40;;;;;;;3.62;82.69;100501.41;5066998;28;20033;-73
2022/01/20 06:35:22;;;;;;;13.90;3.95;;;;;;;3.63;82.83;100487.50;5068124;28;20098;-73
2022/01/20 06:37:47;;;;;;;16.85;5.72;;;;;;;3.62;82.91;100497.06;5068816;28;20040;-74
2022/01/20 06:40:14;;;;;;;7.80;3.55;;;;;;;3.63;82.81;100506.59;5069518;28;20036;-73
2022/01/20 06:42:40;;;;;;;11.68;4.30;;;;;;;3.65;83.08;100509.22;5054902;28;20032;-74
2022/01/20 06:45:09;;;;;;;13.13;5.93;;;;;;;3.68;82.93;100513.53;5048759;28;20033;-72
2022/01/20 06:47:35;;;;;;;22.98;4.35;;;;;;;3.68;83.08;100523.97;5049225;28;20053;-72
2022/01/20 06:50:01;;;;;;;13.25;4.03;;;;;;;3.70;82.81;100535.25;5048715;28;20160;-73
2022/01/20 06:52:27;;;;;;;18.23;6.63;;;;;;;3.69;82.65;100536.09;5048251;28;20124;-73
2022/01/20 06:54:54;;;;;;;20.42;5.78;;;;;;;3.70;83.00;100548.28;5048649;28;20043;-72
2022/01/20 06:57:21;;;;;;;12.30;4.97;;;;;;;3.72;82.52;100554.34;5047873;28;20102;-74
2022/01/20 06:59:47;;;;;;;7.43;3.75;;;;;;;3.73;82.51;100554.31;5049576;28;20452;-72
2022/01/20 07:02:12;;;;;;;10.52;4.47;;;;;;;3.73;82.93;100559.53;5065519;28;20029;-74
2022/01/20 07:04:38;;;;;;;18.65;4.13;;;;;;;3.73;82.58;100564.75;5069503;28;20040;-72
2022/01/20 07:07:04;;;;;;;21.70;6.50;;;;;;;3.70;83.21;100563.94;5069138;28;20122;-73
2022/01/20 07:09:30;;;;;;;9.15;4.50;;;;;;;3.69;83.25;100565.66;5067237;28;20040;-72
2022/01/20 07:11:55;;;;;;;14.43;4.53;;;;;;;3.63;82.93;100570.94;5058273;28;20028;-73
2022/01/20 07:14:21;;;;;;;14.90;5.60;;;;;;;3.62;83.35;100577.91;5055563;28;20120;-73
2022/01/20 07:16:48;;;;;;;17.27;5.63;;;;;;;3.58;83.18;100590.97;5058320;28;20039;-72
2022/01/20 07:19:13;;;;;;;19.55;5.82;;;;;;;3.61;82.86;100598.75;5051695;28;20124;-73
2022/01/20 07:21:39;;;;;;;14.95;5.35;;;;;;;3.64;83.11;100598.72;5048834;28;20120;-74
2022/01/20 07:24:04;;;;;;;11.07;5.03;;;;;;;3.56;82.48;100610.97;5048618;28;20033;-70
2022/01/20 07:26:30;;;;;;;15.10;5.78;;;;;;;3.55;83.48;100617.06;5056261;28;20431;-70
2022/01/20 07:28:55;;;;;;;18.15;5.22;;;;;;;3.53;83.44;100622.28;5068396;28;20044;-70
2022/01/20 07:31:22;;;;;;;15.90;6.38;;;;;;;3.53;83.82;100627.47;5067828;28;20135;-70
2022/01/20 07:33:49;;;;;;;21.75;7.80;;;;;;;3.50;83.28;100637.09;5065361;28;21095;-70
2022/01/20 07:36:14;;;;;;;20.10;7.53;;;;;;;3.46;83.80;100649.25;5067990;28;20036;-70
2022/01/20 07:38:40;;;;;;;15.75;4.00;;;;;;;3.38;83.51;100653.66;5067245;28;20029;-70
2022/01/20 07:41:05;;;;;;;15.00;5.65;;;;;;;3.21;82.57;100649.41;5061736;28;20543;-69
2022/01/20 07:43:31;;;;;;;14.02;4.25;;;;;;;3.11;82.70;100642.50;5067669;28;20036;-69
2022/01/20 07:45:56;;;;;;;14.50;4.97;;;;;;;3.06;81.97;100648.63;5067932;28;20056;-69
2022/01/20 07:48:21;;;;;;;19.73;3.85;;;;;;;3.07;82.16;100650.34;5068200;28;20486;-70
2022/01/20 07:50:47;;;;;;;28.58;4.70;;;;;;;3.09;80.89;100654.66;5067511;28;20031;-69
2022/01/20 08:05:14;;;;;;;15.13;4.88;;;;;;;3.44;78.59;100671.84;5035754;28;20855;-72
2022/01/20 08:07:40;;;;;;;23.35;8.32;;;;;;;3.35;78.91;100666.72;5022746;28;20395;-72
2022/01/20 08:10:06;;;;;;;21.70;4.25;;;;;;;3.35;79.41;100680.59;5022833;28;20112;-72
2022/01/20 08:12:32;;;;;;;13.27;4.35;;;;;;;3.40;79.27;100685.78;5024284;28;20103;-72
2022/01/20 08:14:58;;;;;;;10.18;3.97;;;;;;;3.46;79.42;100690.97;5024405;28;20073;-71
2022/01/20 08:17:24;;;;;;;15.68;4.80;;;;;;;3.49;79.46;100682.25;5023877;28;20046;-71
2022/01/20 08:19:50;;;;;;;20.00;4.65;;;;;;;3.48;78.79;100684.00;5024553;28;20038;-74
2022/01/20 08:22:16;;;;;;;23.35;5.65;;;;;;;3.49;78.70;100671.81;5024577;28;20026;-74
2022/01/20 08:24:41;;;;;;;16.02;4.90;;;;;;;3.53;78.57;100676.16;5023776;28;20038;-72
2022/01/20 08:27:11;;;;;;;16.90;5.45;;;;;;;3.51;78.47;100680.50;5025185;28;20386;-73
2022/01/20 08:29:37;;;;;;;23.80;4.05;;;;;;;3.54;78.84;100688.31;5024054;28;20052;-73
2022/01/20 08:32:04;;;;;;;21.65;4.72;;;;;;;3.52;78.51;100680.50;5025236;28;20502;-73
2022/01/20 08:34:29;;;;;;;22.75;4.18;;;;;;;3.48;77.46;100678.78;5024023;28;20430;-73
2022/01/20 08:36:55;;;;;;;15.80;4.28;;;;;;;3.48;78.04;100685.75;5024877;28;20037;-73
2022/01/20 08:41:53;;;;;;;22.40;5.20;;;;;;;3.45;77.79;100673.59;5025792;28;20057;-73
2022/01/20 08:44:18;;;;;;;20.75;5.63;;;;;;;3.56;77.40;100677.00;5025124;28;20056;-73
2022/01/20 08:46:46;;;;;;;20.83;4.90;;;;;;;3.67;77.34;100679.56;5025540;28;20048;-72
2022/01/20 08:49:11;;;;;;;15.63;4.13;;;;;;;3.70;76.70;100683.88;5023913;28;20037;-72
2022/01/20 08:51:36;;;;;;;15.25;6.28;;;;;;;3.69;77.38;100692.56;5025499;28;20042;-72
2022/01/20 08:54:02;;;;;;;20.42;5.45;;;;;;;3.69;77.00;100697.78;5024727;28;20068;-74
2022/01/20 08:56:28;;;;;;;37.20;12.00;;;;;;;3.67;76.62;100689.97;5027889;28;20053;-73
2022/01/20 08:58:53;;;;;;;21.63;5.65;;;;;;;3.71;76.80;100698.63;5027161;28;20044;-73
2022/01/20 09:01:18;;;;;;;24.85;4.93;;;;;;;3.82;76.68;100700.31;5025100;28;20399;-72
2022/01/20 09:03:44;;;;;;;23.45;5.68;;;;;;;3.91;75.75;100711.53;5025380;28;20113;-73
2022/01/20 09:06:09;;;;;;;21.85;5.43;;;;;;;3.99;75.70;100705.41;5011219;28;20025;-73
2022/01/20 09:08:35;;;;;;;24.75;5.43;;;;;;;4.06;75.77;100720.13;5007771;28;20073;-72
2022/01/20 09:11:01;;;;;;;31.00;6.95;;;;;;;4.01;75.85;100727.13;5011080;28;20153;-73
2022/01/20 09:16:11;;;;;;;22.55;6.03;;;;;;;3.88;76.51;100736.75;5011118;28;20095;-71
2022/01/20 09:18:36;;;;;;;20.88;5.40;;;;;;;3.84;76.33;100729.84;5011091;28;20121;-73
2022/01/20 09:21:02;;;;;;;11.00;3.97;;;;;;;3.88;76.36;100733.28;5011299;28;20410;-72
2022/01/20 09:23:27;;;;;;;17.60;4.43;;;;;;;3.89;76.52;100727.22;5011131;28;20111;-72
2022/01/20 09:25:53;;;;;;;24.30;5.28;;;;;;;3.90;76.96;100739.38;5010435;28;20515;-71
2022/01/20 09:28:18;;;;;;;19.42;5.82;;;;;;;3.91;76.41;100740.22;5009746;28;20038;-74
2022/01/20 09:30:45;;;;;;;14.93;5.22;;;;;;;3.92;76.17;100742.84;5011732;28;20046;-72
2022/01/20 09:33:17;;;;;;;16.75;6.20;;;;;;;3.92;75.94;100744.59;5010726;28;20062;-72
2022/01/20 09:35:44;;;;;;;21.05;5.32;;;;;;;3.94;76.17;100743.72;5012465;28;20045;-74
2022/01/20 09:38:11;;;;;;;23.67;5.80;;;;;;;3.95;75.73;100734.13;5010953;28;20165;-71
2022/01/20 09:40:37;;;;;;;18.95;5.00;;;;;;;3.94;75.74;100733.28;5010737;28;20042;-72
2022/01/20 09:43:04;;;;;;;19.10;4.60;;;;;;;3.98;75.86;100732.34;5009167;28;20403;-73
2022/01/20 09:45:30;;;;;;;21.25;7.90;;;;;;;4.04;75.61;100736.69;5008526;28;20037;-74
2022/01/20 09:47:56;;;;;;;15.15;5.78;;;;;;;4.08;74.65;100739.22;5010270;28;20046;-74
2022/01/20 09:50:24;;;;;;;18.00;3.88;;;;;;;4.16;74.54;100746.13;5009215;28;20077;-73
2022/01/20 09:52:51;;;;;;;21.17;4.85;;;;;;;4.21;73.67;100747.84;4999771;28;20030;-73
2022/01/20 09:55:18;;;;;;;19.23;4.93;;;;;;;4.22;73.33;100760.00;5009342;28;20038;-72
2022/01/20 09:57:44;;;;;;;23.55;3.88;;;;;;;4.30;72.57;100766.03;4993755;28;20407;-73
2022/01/20 10:00:12;;;;;;;24.17;5.95;;;;;;;4.31;71.20;100769.53;5012693;28;20030;-74
2022/01/20 10:03:00;;;;;;;19.67;5.45;;;;;;;4.30;70.90;100767.78;5010658;28;20038;-73
2022/01/20 10:05:35;;;;;;;22.17;5.82;;;;;;;4.27;71.40;100779.13;5010564;28;20116;-73
2022/01/20 10:08:14;;;;;;;15.38;5.63;;;;;;;4.20;70.41;100779.19;5011167;28;20065;-72
2022/01/20 10:10:45;;;;;;;16.13;5.78;;;;;;;4.17;70.74;100777.47;5010877;28;20130;-73
2022/01/20 10:13:11;;;;;;;19.40;4.57;;;;;;;4.19;69.98;100778.31;5010560;28;20041;-72
2022/01/20 10:15:38;;;;;;;26.13;5.97;;;;;;;4.15;70.24;100783.56;5009466;28;20042;-72
2022/01/20 10:18:13;;;;;;;27.17;7.15;;;;;;;4.12;70.05;100781.84;5009633;28;20442;-73
2022/01/20 10:20:56;;;;;;;20.52;6.05;;;;;;;4.23;70.26;100786.97;5010074;28;20380;-72
2022/01/20 10:23:43;;;;;;;17.95;5.97;;;;;;;4.35;70.94;100788.63;5009919;28;20109;-72
2022/01/20 10:26:18;;;;;;;20.88;5.20;;;;;;;4.42;71.92;100792.94;5009168;28;20033;-72
2022/01/20 10:29:01;;;;;;;16.77;5.25;;;;;;;4.45;73.08;100791.16;5010066;28;20042;-72
2022/01/20 10:31:31;;;;;;;18.95;5.22;;;;;;;4.43;72.49;100794.66;5009749;28;20046;-72
2022/01/20 10:33:56;;;;;;;14.27;4.22;;;;;;;4.46;72.72;100803.34;5009273;28;20041;-72
2022/01/20 10:36:22;;;;;;;15.48;5.43;;;;;;;4.51;72.28;100806.78;5010084;28;20164;-72
2022/01/20 10:38:56;;;;;;;14.95;4.60;;;;;;;4.62;72.92;100811.06;5009328;28;20073;-73
2022/01/20 10:41:31;;;;;;;30.50;8.55;;;;;;;4.67;72.47;100811.88;5009357;28;20033;-71
2022/01/20 10:44:14;;;;;;;16.52;5.07;;;;;;;4.68;72.48;100809.25;5007367;28;20045;-73
2022/01/20 10:46:45;;;;;;;20.85;5.57;;;;;;;4.64;73.01;100802.31;5009406;28;20032;-72
2022/01/20 10:49:10;;;;;;;19.67;5.38;;;;;;;4.60;71.58;100807.56;5008513;28;20054;-72
2022/01/20 10:51:36;;;;;;;21.45;6.43;;;;;;;4.66;71.92;100816.25;5009240;28;20057;-72
2022/01/20 10:54:09;;;;;;;25.80;5.75;;;;;;;4.62;71.06;100816.28;5008746;28;20042;-73
2022/01/20 10:56:53;;;;;;;17.65;4.72;;;;;;;4.57;71.74;100815.44;5008331;28;20034;-73
2022/01/20 10:59:21;;;;;;;17.02;4.90;;;;;;;4.56;72.06;100819.81;5007797;28;20041;-72
2022/01/20 11:02:04;;;;;;;18.95;7.95;;;;;;;4.56;72.18;100814.59;5008162;28;20034;-73
2022/01/20 11:04:30;;;;;;;20.42;6.45;;;;;;;4.49;72.70;100818.13;5008413;28;20495;-72
2022/01/20 11:06:58;;;;;;;18.13;5.93;;;;;;;4.51;73.01;100814.63;5009146;28;20102;-72
2022/01/20 11:09:25;;;;;;;24.23;5.97;;;;;;;4.53;73.04;100814.63;5009061;28;20033;-73
2022/01/20 11:11:52;;;;;;;17.40;5.18;;;;;;;4.54;73.01;100805.91;5007984;28;20124;-73
2022/01/20 11:14:17;;;;;;;18.58;4.47;;;;;;;4.60;72.96;100807.56;5007814;28;20038;-71
2022/01/20 11:16:44;;;;;;;21.88;6.50;;;;;;;4.69;72.40;100804.91;5008617;28;20045;-71
2022/01/20 11:19:20;;;;;;;20.20;5.90;;;;;;;4.82;72.60;100801.28;5009210;28;20033;-71
2022/01/20 11:21:46;;;;;;;16.15;4.90;;;;;;;4.89;71.85;100807.31;5008856;28;20450;-72
2022/01/20 11:24:25;;;;;;;14.18;5.07;;;;;;;4.99;72.45;100805.50;5008410;28;20042;-71
2022/01/20 11:26:55;;;;;;;17.45;4.85;;;;;;;5.01;71.30;100801.97;5008620;28;20042;-72
2022/01/20 11:29:38;;;;;;;14.30;4.53;;;;;;;5.00;70.58;100810.72;5008093;28;20681;-73
2022/01/20 11:32:19;;;;;;;18.35;5.40;;;;;;;4.97;70.01;100795.03;4999051;28;20046;-73
2022/01/20 11:35:05;;;;;;;20.80;5.97;;;;;;;5.00;69.73;100799.41;4992343;28;20038;-73
2022/01/20 11:37:34;;;;;;;20.17;5.10;;;;;;;5.10;69.45;100806.25;5008854;28;20041;-73
2022/01/20 11:40:26;;;;;;;12.93;4.00;;;;;;;5.24;67.79;100804.38;5007237;28;20044;-73
2022/01/20 11:43:05;;;;;;;22.33;5.47;;;;;;;5.32;67.11;100802.53;5004167;28;20402;-73
2022/01/20 11:45:43;;;;;;;23.73;6.63;;;;;;;5.18;66.12;100800.94;5005997;28;20434;-73
2022/01/20 11:48:19;;;;;;;18.65;5.70;;;;;;;5.16;65.78;100806.19;5007800;28;20026;-73
2022/01/20 11:50:46;;;;;;;24.77;5.78;;;;;;;5.09;64.12;100814.97;4997116;28;20042;-73
2022/01/20 11:53:17;;;;;;;31.13;6.68;;;;;;;4.82;64.83;100808.25;4988974;28;20042;-74
2022/01/20 11:55:51;;;;;;;14.93;3.78;;;;;;;4.63;63.57;100820.63;4984632;28;20078;-73
2022/01/20 11:58:22;;;;;;;19.02;4.97;;;;;;;4.57;63.46;100825.91;4989985;28;20455;-73
2022/01/20 12:01:07;;;;;;;15.95;5.40;;;;;;;4.77;63.92;100823.97;5010495;28;20034;-73
2022/01/20 12:03:35;;;;;;;16.58;6.20;;;;;;;4.84;62.19;100820.44;5008734;28;20037;-73
2022/01/20 12:06:03;;;;;;;21.33;4.43;;;;;;;4.88;61.74;100816.91;5004854;28;20108;-73
2022/01/20 12:08:29;;;;;;;35.65;5.80;;;;;;;5.10;62.20;100806.25;5008689;28;20034;-73
2022/01/20 12:11:22;;;;;;;15.45;4.15;;;;;;;5.14;61.20;100802.72;5008392;28;20034;-73
2022/01/20 12:13:55;;;;;;;20.38;4.75;;;;;;;5.06;61.10;100799.31;5004189;28;20044;-71
2022/01/20 12:16:25;;;;;;;21.90;4.43;;;;;;;4.97;60.11;100794.19;5008050;28;20041;-72
2022/01/20 12:18:53;;;;;;;20.77;5.57;;;;;;;5.06;61.04;100783.63;5007099;28;20042;-71
2022/01/20 12:21:19;;;;;;;20.60;4.88;;;;;;;5.14;60.14;100797.50;5008282;28;20037;-71
2022/01/20 12:23:46;;;;;;;14.75;4.18;;;;;;;5.25;58.88;100789.53;5008464;28;20431;-72
2022/01/20 12:26:13;;;;;;;14.38;4.78;;;;;;;5.25;58.87;100793.03;5007482;28;20045;-72
2022/01/20 12:28:39;;;;;;;14.80;4.07;;;;;;;5.22;59.72;100785.22;5008286;28;20049;-72
2022/01/20 12:31:08;;;;;;;26.73;5.00;;;;;;;5.23;59.19;100783.47;5008873;28;20030;-72
2022/01/20 12:33:37;;;;;;;15.30;4.68;;;;;;;5.16;59.51;100787.88;5007970;28;20882;-72
2022/01/20 12:36:04;;;;;;;36.25;6.78;;;;;;;4.99;60.09;100795.03;5007710;28;20049;-71
2022/01/20 12:38:35;;;;;;;32.72;7.32;;;;;;;4.95;60.10;100789.00;5008787;28;20037;-72
2022/01/20 12:41:09;;;;;;;23.02;5.18;;;;;;;4.98;59.36;100786.34;5011073;28;20104;-72
2022/01/20 12:43:39;;;;;;;13.25;5.55;;;;;;;4.89;61.40;100787.28;5012292;28;20041;-72
2022/01/20 12:46:06;;;;;;;13.90;3.60;;;;;;;4.93;59.79;100791.59;5011457;28;20057;-72
2022/01/20 12:48:31;;;;;;;17.98;4.50;;;;;;;4.87;59.00;100783.84;5011540;28;20390;-73
2022/01/20 12:51:04;;;;;;;23.27;5.53;;;;;;;4.85;59.73;100783.00;5009937;28;20113;-72